sensor_id;sensor_type;location;lat;lon;timestamp;temperature;humidity
15257;DHT22;7731;50.720;6.912;2023-10-13T00:00:42;17.30;99.90
15257;DHT22;7731;50.720;6.912;2023-10-13T00:03:13;17.20;99.90
15257;DHT22;7731;50.720;6.912;2023-10-13T00:05:49;17.20;99.90
15257;DHT22;7731;50.720;6.912;2023-10-13T00:08:22;17.20;99.90
15257;DHT22;7731;50.720;6.912;2023-10-13T00:10:52;17.20;99.90
15257;DHT22;7731;50.720;6.912;2023-10-13T00:13:27;17.20;99.90
15257;DHT22;7731;50.720;6.912;2023-10-13T00:16:08;17.30;99.90
15257;DHT22;7731;50.720;6.912;2023-10-13T00:18:45;17.20;99.90
15257;DHT22;7731;50.720;6.912;2023-10-13T00:21:16;17.30;99.90
15257;DHT22;7731;50.720;6.912;2023-10-13T00:23:54;17.30;99.90
15257;DHT22;7731;50.720;6.912;2023-10-13T00:26:26;17.20;99.90
15257;DHT22;7731;50.720;6.912;2023-10-13T00:29:02;17.20;99.90
15257;DHT22;7731;50.720;6.912;2023-10-13T00:31:43;17.20;99.90
15257;DHT22;7731;50.720;6.912;2023-10-13T00:34:16;17.20;99.90
15257;DHT22;7731;50.720;6.912;2023-10-13T00:36:53;17.20;99.90
15257;DHT22;7731;50.720;6.912;2023-10-13T00:39:39;17.10;99.90
15257;DHT22;7731;50.720;6.912;2023-10-13T00:42:13;17.20;99.90
15257;DHT22;7731;50.720;6.912;2023-10-13T00:44:57;17.20;99.90
15257;DHT22;7731;50.720;6.912;2023-10-13T00:47:28;17.10;99.90
15257;DHT22;7731;50.720;6.912;2023-10-13T00:50:16;17.10;99.90
15257;DHT22;7731;50.720;6.912;2023-10-13T00:52:49;17.10;99.90
15257;DHT22;7731;50.720;6.912;2023-10-13T00:55:21;17.10;99.90
15257;DHT22;7731;50.720;6.912;2023-10-13T00:57:56;17.20;99.90
15257;DHT22;7731;50.720;6.912;2023-10-13T01:00:30;17.30;99.90
15257;DHT22;7731;50.720;6.912;2023-10-13T01:03:13;17.20;99.90
15257;DHT22;7731;50.720;6.912;2023-10-13T01:05:42;17.20;99.90
15257;DHT22;7731;50.720;6.912;2023-10-13T01:08:12;17.20;99.90
15257;DHT22;7731;50.720;6.912;2023-10-13T01:10:45;17.30;99.90
15257;DHT22;7731;50.720;6.912;2023-10-13T01:13:16;17.30;99.90
15257;DHT22;7731;50.720;6.912;2023-10-13T01:15:44;17.30;99.90
15257;DHT22;7731;50.720;6.912;2023-10-13T01:18:16;17.20;99.90
15257;DHT22;7731;50.720;6.912;2023-10-13T01:20:44;17.20;99.90
15257;DHT22;7731;50.720;6.912;2023-10-13T01:23:21;17.10;99.90
15257;DHT22;7731;50.720;6.912;2023-10-13T01:25:55;17.10;99.90
15257;DHT22;7731;50.720;6.912;2023-10-13T01:28:32;17.10;99.90
15257;DHT22;7731;50.720;6.912;2023-10-13T01:31:11;17.10;99.90
15257;DHT22;7731;50.720;6.912;2023-10-13T01:33:52;17.10;99.90
15257;DHT22;7731;50.720;6.912;2023-10-13T01:36:27;17.10;99.90
15257;DHT22;7731;50.720;6.912;2023-10-13T01:38:58;17.10;99.90
15257;DHT22;7731;50.720;6.912;2023-10-13T01:41:28;17.10;99.90
15257;DHT22;7731;50.720;6.912;2023-10-13T01:43:58;17.10;99.90
15257;DHT22;7731;50.720;6.912;2023-10-13T01:46:28;17.10;99.90
15257;DHT22;7731;50.720;6.912;2023-10-13T01:48:59;17.10;99.90
15257;DHT22;7731;50.720;6.912;2023-10-13T01:51:35;17.10;99.90
15257;DHT22;7731;50.720;6.912;2023-10-13T01:54:14;17.20;99.90
15257;DHT22;7731;50.720;6.912;2023-10-13T01:56:49;17.20;99.90
15257;DHT22;7731;50.720;6.912;2023-10-13T01:59:29;17.20;99.90
15257;DHT22;7731;50.720;6.912;2023-10-13T02:02:10;17.20;99.90
15257;DHT22;7731;50.720;6.912;2023-10-13T02:04:49;17.20;99.90
15257;DHT22;7731;50.720;6.912;2023-10-13T02:07:29;17.20;99.90
15257;DHT22;7731;50.720;6.912;2023-10-13T02:10:12;17.10;99.90
15257;DHT22;7731;50.720;6.912;2023-10-13T02:12:51;17.10;99.90
15257;DHT22;7731;50.720;6.912;2023-10-13T02:15:31;17.10;99.90
15257;DHT22;7731;50.720;6.912;2023-10-13T02:18:14;17.10;99.90
15257;DHT22;7731;50.720;6.912;2023-10-13T02:20:56;17.10;99.90
15257;DHT22;7731;50.720;6.912;2023-10-13T02:23:41;17.10;99.90
15257;DHT22;7731;50.720;6.912;2023-10-13T02:26:23;17.10;99.90
15257;DHT22;7731;50.720;6.912;2023-10-13T02:29:02;17.00;99.90
15257;DHT22;7731;50.720;6.912;2023-10-13T02:31:43;17.00;99.90
15257;DHT22;7731;50.720;6.912;2023-10-13T02:34:22;17.00;99.90
15257;DHT22;7731;50.720;6.912;2023-10-13T02:37:02;17.10;99.90
15257;DHT22;7731;50.720;6.912;2023-10-13T02:39:42;17.10;99.90
15257;DHT22;7731;50.720;6.912;2023-10-13T02:42:25;17.20;99.90
15257;DHT22;7731;50.720;6.912;2023-10-13T02:45:07;17.20;99.90
15257;DHT22;7731;50.720;6.912;2023-10-13T02:47:48;17.20;99.90
15257;DHT22;7731;50.720;6.912;2023-10-13T02:50:28;17.30;99.90
15257;DHT22;7731;50.720;6.912;2023-10-13T02:53:08;17.30;99.90
15257;DHT22;7731;50.720;6.912;2023-10-13T02:55:51;17.30;99.90
15257;DHT22;7731;50.720;6.912;2023-10-13T02:58:34;17.30;99.90
15257;DHT22;7731;50.720;6.912;2023-10-13T03:01:13;17.30;99.90
15257;DHT22;7731;50.720;6.912;2023-10-13T03:03:54;17.30;99.90
15257;DHT22;7731;50.720;6.912;2023-10-13T03:06:35;17.30;99.90
15257;DHT22;7731;50.720;6.912;2023-10-13T03:09:15;17.40;99.90
15257;DHT22;7731;50.720;6.912;2023-10-13T03:11:55;17.50;99.90
15257;DHT22;7731;50.720;6.912;2023-10-13T03:14:38;17.50;99.90
15257;DHT22;7731;50.720;6.912;2023-10-13T03:17:17;17.50;99.90
15257;DHT22;7731;50.720;6.912;2023-10-13T03:19:57;17.50;99.90
15257;DHT22;7731;50.720;6.912;2023-10-13T03:22:37;17.40;99.90
15257;DHT22;7731;50.720;6.912;2023-10-13T03:25:18;17.50;99.90
15257;DHT22;7731;50.720;6.912;2023-10-13T03:27:58;17.50;99.90
15257;DHT22;7731;50.720;6.912;2023-10-13T03:30:41;17.50;99.90
15257;DHT22;7731;50.720;6.912;2023-10-13T03:33:20;17.50;99.90
15257;DHT22;7731;50.720;6.912;2023-10-13T03:36:01;17.50;99.90
15257;DHT22;7731;50.720;6.912;2023-10-13T03:38:42;17.60;99.90
15257;DHT22;7731;50.720;6.912;2023-10-13T03:41:22;17.60;99.90
15257;DHT22;7731;50.720;6.912;2023-10-13T03:44:04;17.70;99.90
15257;DHT22;7731;50.720;6.912;2023-10-13T03:46:47;17.70;99.90
15257;DHT22;7731;50.720;6.912;2023-10-13T03:49:26;17.70;99.90
15257;DHT22;7731;50.720;6.912;2023-10-13T03:52:07;17.60;99.90
15257;DHT22;7731;50.720;6.912;2023-10-13T03:54:46;17.70;99.90
15257;DHT22;7731;50.720;6.912;2023-10-13T03:57:28;17.70;99.90
15257;DHT22;7731;50.720;6.912;2023-10-13T04:00:11;17.70;99.90
15257;DHT22;7731;50.720;6.912;2023-10-13T04:02:55;17.70;99.90
15257;DHT22;7731;50.720;6.912;2023-10-13T04:05:36;17.70;99.90
15257;DHT22;7731;50.720;6.912;2023-10-13T04:08:15;17.70;99.90
15257;DHT22;7731;50.720;6.912;2023-10-13T04:10:57;17.60;99.90
15257;DHT22;7731;50.720;6.912;2023-10-13T04:13:37;17.60;99.90
15257;DHT22;7731;50.720;6.912;2023-10-13T04:16:17;17.60;99.90
15257;DHT22;7731;50.720;6.912;2023-10-13T04:19:00;17.60;99.90
15257;DHT22;7731;50.720;6.912;2023-10-13T04:21:39;17.70;99.90
15257;DHT22;7731;50.720;6.912;2023-10-13T04:24:19;17.70;99.90
15257;DHT22;7731;50.720;6.912;2023-10-13T04:26:59;17.70;99.90
15257;DHT22;7731;50.720;6.912;2023-10-13T04:29:40;17.70;99.90
15257;DHT22;7731;50.720;6.912;2023-10-13T04:32:19;17.70;99.90
15257;DHT22;7731;50.720;6.912;2023-10-13T04:35:02;17.70;99.90
15257;DHT22;7731;50.720;6.912;2023-10-13T04:37:43;17.80;99.90
15257;DHT22;7731;50.720;6.912;2023-10-13T04:40:23;17.80;99.90
15257;DHT22;7731;50.720;6.912;2023-10-13T04:43:03;17.90;99.90
15257;DHT22;7731;50.720;6.912;2023-10-13T04:45:43;17.80;99.90
15257;DHT22;7731;50.720;6.912;2023-10-13T04:48:23;17.80;99.90
15257;DHT22;7731;50.720;6.912;2023-10-13T04:51:06;17.80;99.90
15257;DHT22;7731;50.720;6.912;2023-10-13T04:53:45;17.80;99.90
15257;DHT22;7731;50.720;6.912;2023-10-13T04:56:26;17.80;99.90
15257;DHT22;7731;50.720;6.912;2023-10-13T04:59:06;17.80;99.90
15257;DHT22;7731;50.720;6.912;2023-10-13T05:01:48;17.90;99.90
15257;DHT22;7731;50.720;6.912;2023-10-13T05:04:27;17.90;99.90
15257;DHT22;7731;50.720;6.912;2023-10-13T05:07:10;17.80;99.90
15257;DHT22;7731;50.720;6.912;2023-10-13T05:09:49;17.80;99.90
15257;DHT22;7731;50.720;6.912;2023-10-13T05:12:29;17.80;99.90
15257;DHT22;7731;50.720;6.912;2023-10-13T11:30:12;24.60;1.00
15257;DHT22;7731;50.720;6.912;2023-10-13T11:32:57;24.50;1.00
15257;DHT22;7731;50.720;6.912;2023-10-13T11:35:34;24.40;70.90
15257;DHT22;7731;50.720;6.912;2023-10-13T11:38:18;24.30;59.10
15257;DHT22;7731;50.720;6.912;2023-10-13T11:40:57;24.50;1.00
15257;DHT22;7731;50.720;6.912;2023-10-13T11:43:45;24.60;99.90
15257;DHT22;7731;50.720;6.912;2023-10-13T11:46:31;24.80;99.90
15257;DHT22;7731;50.720;6.912;2023-10-13T11:49:14;24.70;99.90
15257;DHT22;7731;50.720;6.912;2023-10-13T11:51:59;24.70;1.00
15257;DHT22;7731;50.720;6.912;2023-10-13T11:54:43;24.50;85.50
15257;DHT22;7731;50.720;6.912;2023-10-13T11:57:16;24.50;99.90
15257;DHT22;7731;50.720;6.912;2023-10-13T11:59:47;24.50;1.00
15257;DHT22;7731;50.720;6.912;2023-10-13T12:02:46;24.50;1.00
15257;DHT22;7731;50.720;6.912;2023-10-13T12:05:31;24.40;99.90
15257;DHT22;7731;50.720;6.912;2023-10-13T12:08:16;24.50;1.00
15257;DHT22;7731;50.720;6.912;2023-10-13T12:11:02;24.70;1.00
15257;DHT22;7731;50.720;6.912;2023-10-13T12:13:52;24.50;1.00
15257;DHT22;7731;50.720;6.912;2023-10-13T12:16:22;24.40;1.00
15257;DHT22;7731;50.720;6.912;2023-10-13T12:19:04;24.30;1.00
15257;DHT22;7731;50.720;6.912;2023-10-13T12:21:38;24.20;99.90
15257;DHT22;7731;50.720;6.912;2023-10-13T12:24:11;24.30;1.00
15257;DHT22;7731;50.720;6.912;2023-10-13T12:26:49;24.40;1.00
15257;DHT22;7731;50.720;6.912;2023-10-13T12:29:25;24.40;99.90
15257;DHT22;7731;50.720;6.912;2023-10-13T12:31:56;24.40;1.00
15257;DHT22;7731;50.720;6.912;2023-10-13T12:34:40;24.30;1.00
15257;DHT22;7731;50.720;6.912;2023-10-13T12:37:39;24.20;50.30
15257;DHT22;7731;50.720;6.912;2023-10-13T12:40:32;24.10;1.00
15257;DHT22;7731;50.720;6.912;2023-10-13T12:43:15;24.00;1.00
15257;DHT22;7731;50.720;6.912;2023-10-13T12:45:57;24.10;1.00
15257;DHT22;7731;50.720;6.912;2023-10-13T12:48:43;24.40;1.00
15257;DHT22;7731;50.720;6.912;2023-10-13T12:51:34;24.60;1.00
15257;DHT22;7731;50.720;6.912;2023-10-13T12:54:18;24.80;1.00
15257;DHT22;7731;50.720;6.912;2023-10-13T12:57:02;24.90;1.00
15257;DHT22;7731;50.720;6.912;2023-10-13T12:59:36;24.90;99.90
15257;DHT22;7731;50.720;6.912;2023-10-13T13:02:10;24.90;99.90
15257;DHT22;7731;50.720;6.912;2023-10-13T13:04:42;24.80;1.00
15257;DHT22;7731;50.720;6.912;2023-10-13T13:07:20;24.70;1.00
15257;DHT22;7731;50.720;6.912;2023-10-13T13:09:57;24.60;99.90
15257;DHT22;7731;50.720;6.912;2023-10-13T13:12:28;24.50;1.00
15257;DHT22;7731;50.720;6.912;2023-10-13T13:14:58;24.40;1.00
15257;DHT22;7731;50.720;6.912;2023-10-13T13:17:34;24.30;1.00
15257;DHT22;7731;50.720;6.912;2023-10-13T13:20:08;24.20;1.00
15257;DHT22;7731;50.720;6.912;2023-10-13T13:22:55;24.30;1.00
15257;DHT22;7731;50.720;6.912;2023-10-13T13:25:30;24.30;99.90
15257;DHT22;7731;50.720;6.912;2023-10-13T13:28:01;24.30;99.90
15257;DHT22;7731;50.720;6.912;2023-10-13T13:30:35;24.30;99.90
15257;DHT22;7731;50.720;6.912;2023-10-13T13:33:06;24.30;1.00
15257;DHT22;7731;50.720;6.912;2023-10-13T13:35:41;24.30;16.00
15257;DHT22;7731;50.720;6.912;2023-10-13T13:38:18;24.40;70.90
15257;DHT22;7731;50.720;6.912;2023-10-13T13:40:50;24.50;99.90
15257;DHT22;7731;50.720;6.912;2023-10-13T13:43:22;24.60;55.70
15257;DHT22;7731;50.720;6.912;2023-10-13T13:46:06;24.60;12.00
15257;DHT22;7731;50.720;6.912;2023-10-13T13:48:40;24.60;99.90
15257;DHT22;7731;50.720;6.912;2023-10-13T13:51:10;24.50;1.00
15257;DHT22;7731;50.720;6.912;2023-10-13T13:53:45;24.30;99.90
15257;DHT22;7731;50.720;6.912;2023-10-13T13:56:16;24.20;58.40
15257;DHT22;7731;50.720;6.912;2023-10-13T13:58:47;24.00;1.00
15257;DHT22;7731;50.720;6.912;2023-10-13T14:01:19;23.90;1.00
15257;DHT22;7731;50.720;6.912;2023-10-13T14:03:53;23.70;1.00
15257;DHT22;7731;50.720;6.912;2023-10-13T14:06:30;23.70;99.90
15257;DHT22;7731;50.720;6.912;2023-10-13T14:09:04;23.60;99.90
15257;DHT22;7731;50.720;6.912;2023-10-13T14:11:42;23.50;1.00
15257;DHT22;7731;50.720;6.912;2023-10-13T14:14:33;23.40;1.00
15257;DHT22;7731;50.720;6.912;2023-10-13T14:17:03;23.40;1.00
15257;DHT22;7731;50.720;6.912;2023-10-13T14:19:36;23.30;1.00
15257;DHT22;7731;50.720;6.912;2023-10-13T14:22:12;23.30;99.90
15257;DHT22;7731;50.720;6.912;2023-10-13T14:24:45;23.30;1.00
15257;DHT22;7731;50.720;6.912;2023-10-13T14:27:18;23.30;1.00
15257;DHT22;7731;50.720;6.912;2023-10-13T14:29:51;23.30;1.00
15257;DHT22;7731;50.720;6.912;2023-10-13T14:32:24;23.20;1.00
15257;DHT22;7731;50.720;6.912;2023-10-13T14:34:56;23.20;1.00
15257;DHT22;7731;50.720;6.912;2023-10-13T14:37:27;23.20;35.80
15257;DHT22;7731;50.720;6.912;2023-10-13T14:40:01;23.20;1.00
15257;DHT22;7731;50.720;6.912;2023-10-13T14:42:32;23.20;1.00
15257;DHT22;7731;50.720;6.912;2023-10-13T14:45:06;23.20;1.00
15257;DHT22;7731;50.720;6.912;2023-10-13T14:47:40;23.20;1.00
15257;DHT22;7731;50.720;6.912;2023-10-13T14:50:12;23.20;1.00
15257;DHT22;7731;50.720;6.912;2023-10-13T14:52:50;23.10;11.10
15257;DHT22;7731;50.720;6.912;2023-10-13T14:55:23;23.00;1.00
15257;DHT22;7731;50.720;6.912;2023-10-13T14:58:06;23.10;1.00
15257;DHT22;7731;50.720;6.912;2023-10-13T15:00:39;23.10;1.00
15257;DHT22;7731;50.720;6.912;2023-10-13T15:03:12;23.00;1.00
15257;DHT22;7731;50.720;6.912;2023-10-13T15:05:45;23.10;1.00
15257;DHT22;7731;50.720;6.912;2023-10-13T15:08:16;23.10;99.90
15257;DHT22;7731;50.720;6.912;2023-10-13T15:10:48;23.10;1.00
15257;DHT22;7731;50.720;6.912;2023-10-13T15:13:21;22.90;1.00
15257;DHT22;7731;50.720;6.912;2023-10-13T15:15:52;22.90;1.00
15257;DHT22;7731;50.720;6.912;2023-10-13T15:18:23;22.80;82.90
15257;DHT22;7731;50.720;6.912;2023-10-13T15:20:53;22.80;99.90
15257;DHT22;7731;50.720;6.912;2023-10-13T15:23:23;22.70;99.90
15257;DHT22;7731;50.720;6.912;2023-10-13T15:25:56;22.70;99.90
15257;DHT22;7731;50.720;6.912;2023-10-13T15:28:33;22.60;99.90
15257;DHT22;7731;50.720;6.912;2023-10-13T15:31:11;22.60;99.90
15257;DHT22;7731;50.720;6.912;2023-10-13T15:33:51;22.60;99.90
15257;DHT22;7731;50.720;6.912;2023-10-13T15:36:24;22.50;1.00
15257;DHT22;7731;50.720;6.912;2023-10-13T15:38:58;22.50;1.00
15257;DHT22;7731;50.720;6.912;2023-10-13T15:41:35;22.50;1.00
15257;DHT22;7731;50.720;6.912;2023-10-13T15:44:10;22.50;1.00
15257;DHT22;7731;50.720;6.912;2023-10-13T15:46:41;22.50;1.00
15257;DHT22;7731;50.720;6.912;2023-10-13T15:49:38;22.40;1.00
15257;DHT22;7731;50.720;6.912;2023-10-13T15:52:10;22.30;99.90
15257;DHT22;7731;50.720;6.912;2023-10-13T15:54:43;22.20;99.90
15257;DHT22;7731;50.720;6.912;2023-10-13T15:57:16;22.20;99.90
15257;DHT22;7731;50.720;6.912;2023-10-13T15:59:46;22.20;99.90
15257;DHT22;7731;50.720;6.912;2023-10-13T16:02:17;22.10;99.90
15257;DHT22;7731;50.720;6.912;2023-10-13T16:04:47;22.10;1.00
15257;DHT22;7731;50.720;6.912;2023-10-13T16:07:17;22.00;1.00
15257;DHT22;7731;50.720;6.912;2023-10-13T16:09:48;22.00;1.00
15257;DHT22;7731;50.720;6.912;2023-10-13T16:12:31;21.90;1.00
15257;DHT22;7731;50.720;6.912;2023-10-13T16:15:02;21.90;1.00
15257;DHT22;7731;50.720;6.912;2023-10-13T16:17:35;21.90;1.00
15257;DHT22;7731;50.720;6.912;2023-10-13T16:20:13;21.80;1.00
15257;DHT22;7731;50.720;6.912;2023-10-13T16:22:46;21.80;1.00
15257;DHT22;7731;50.720;6.912;2023-10-13T16:25:17;21.70;1.00
15257;DHT22;7731;50.720;6.912;2023-10-13T16:27:53;21.70;1.00
15257;DHT22;7731;50.720;6.912;2023-10-13T16:30:23;21.70;1.00
15257;DHT22;7731;50.720;6.912;2023-10-13T16:32:56;21.60;1.00
15257;DHT22;7731;50.720;6.912;2023-10-13T16:35:27;21.60;1.00
15257;DHT22;7731;50.720;6.912;2023-10-13T16:38:05;21.60;1.00
15257;DHT22;7731;50.720;6.912;2023-10-13T16:40:38;21.60;1.00
15257;DHT22;7731;50.720;6.912;2023-10-13T16:43:11;21.50;1.00
15257;DHT22;7731;50.720;6.912;2023-10-13T16:45:42;21.40;1.00
15257;DHT22;7731;50.720;6.912;2023-10-13T16:48:15;21.50;1.00
15257;DHT22;7731;50.720;6.912;2023-10-13T16:50:46;21.50;1.00
15257;DHT22;7731;50.720;6.912;2023-10-13T16:53:16;21.50;1.00
15257;DHT22;7731;50.720;6.912;2023-10-13T16:55:49;21.50;1.00
15257;DHT22;7731;50.720;6.912;2023-10-13T16:58:22;21.40;1.00
15257;DHT22;7731;50.720;6.912;2023-10-13T17:00:54;21.30;1.00
15257;DHT22;7731;50.720;6.912;2023-10-13T17:03:24;21.30;1.00
15257;DHT22;7731;50.720;6.912;2023-10-13T17:05:57;21.30;1.00
15257;DHT22;7731;50.720;6.912;2023-10-13T17:08:28;21.20;1.00
15257;DHT22;7731;50.720;6.912;2023-10-13T17:11:07;21.20;1.00
15257;DHT22;7731;50.720;6.912;2023-10-13T17:13:44;21.10;1.00
15257;DHT22;7731;50.720;6.912;2023-10-13T17:16:17;21.10;1.00
15257;DHT22;7731;50.720;6.912;2023-10-13T17:18:50;21.10;1.00
15257;DHT22;7731;50.720;6.912;2023-10-13T17:21:24;21.10;1.00
15257;DHT22;7731;50.720;6.912;2023-10-13T17:23:58;21.00;1.00
15257;DHT22;7731;50.720;6.912;2023-10-13T17:26:30;21.00;1.00
15257;DHT22;7731;50.720;6.912;2023-10-13T17:29:03;21.00;1.00
15257;DHT22;7731;50.720;6.912;2023-10-13T17:31:37;21.10;1.00
15257;DHT22;7731;50.720;6.912;2023-10-13T17:34:10;21.10;1.00
15257;DHT22;7731;50.720;6.912;2023-10-13T17:36:40;21.00;1.00
15257;DHT22;7731;50.720;6.912;2023-10-13T17:39:10;21.00;1.00
15257;DHT22;7731;50.720;6.912;2023-10-13T17:41:41;21.00;1.00
15257;DHT22;7731;50.720;6.912;2023-10-13T17:44:14;20.90;1.00
15257;DHT22;7731;50.720;6.912;2023-10-13T17:46:44;21.00;1.00
15257;DHT22;7731;50.720;6.912;2023-10-13T17:49:15;20.90;1.00
15257;DHT22;7731;50.720;6.912;2023-10-13T17:51:45;21.00;1.00
15257;DHT22;7731;50.720;6.912;2023-10-13T17:54:16;21.00;1.00
15257;DHT22;7731;50.720;6.912;2023-10-13T17:56:47;21.10;1.00
15257;DHT22;7731;50.720;6.912;2023-10-13T17:59:20;21.00;1.00
15257;DHT22;7731;50.720;6.912;2023-10-13T18:01:52;21.00;1.00
15257;DHT22;7731;50.720;6.912;2023-10-13T18:04:22;21.00;1.00
15257;DHT22;7731;50.720;6.912;2023-10-13T18:06:54;21.10;1.00
15257;DHT22;7731;50.720;6.912;2023-10-13T18:09:25;21.00;1.00
15257;DHT22;7731;50.720;6.912;2023-10-13T18:11:56;21.00;1.00
15257;DHT22;7731;50.720;6.912;2023-10-13T18:14:29;21.00;1.00
15257;DHT22;7731;50.720;6.912;2023-10-13T18:17:00;21.00;1.00
15257;DHT22;7731;50.720;6.912;2023-10-13T18:19:32;21.10;1.00
15257;DHT22;7731;50.720;6.912;2023-10-13T18:22:03;21.10;1.00
15257;DHT22;7731;50.720;6.912;2023-10-13T18:24:33;21.00;1.00
15257;DHT22;7731;50.720;6.912;2023-10-13T18:27:03;21.00;1.00
15257;DHT22;7731;50.720;6.912;2023-10-13T18:29:36;21.10;1.00
15257;DHT22;7731;50.720;6.912;2023-10-13T18:32:06;21.00;1.00
15257;DHT22;7731;50.720;6.912;2023-10-13T18:34:37;21.00;1.00
15257;DHT22;7731;50.720;6.912;2023-10-13T18:37:09;20.90;1.00
15257;DHT22;7731;50.720;6.912;2023-10-13T18:39:43;21.00;1.00
15257;DHT22;7731;50.720;6.912;2023-10-13T18:42:15;21.00;1.00
15257;DHT22;7731;50.720;6.912;2023-10-13T18:44:49;21.00;1.00
15257;DHT22;7731;50.720;6.912;2023-10-13T18:47:26;21.00;1.00
15257;DHT22;7731;50.720;6.912;2023-10-13T18:49:59;20.90;1.00
15257;DHT22;7731;50.720;6.912;2023-10-13T18:52:32;20.90;1.00
15257;DHT22;7731;50.720;6.912;2023-10-13T18:55:03;20.80;1.00
15257;DHT22;7731;50.720;6.912;2023-10-13T18:57:34;20.80;1.00
15257;DHT22;7731;50.720;6.912;2023-10-13T19:00:11;20.70;1.00
15257;DHT22;7731;50.720;6.912;2023-10-13T19:02:50;20.70;1.00
15257;DHT22;7731;50.720;6.912;2023-10-13T19:05:20;20.70;1.00
15257;DHT22;7731;50.720;6.912;2023-10-13T19:07:52;20.70;1.00
15257;DHT22;7731;50.720;6.912;2023-10-13T19:10:25;20.70;1.00
15257;DHT22;7731;50.720;6.912;2023-10-13T19:12:56;20.70;1.00
15257;DHT22;7731;50.720;6.912;2023-10-13T19:15:35;20.70;1.00
15257;DHT22;7731;50.720;6.912;2023-10-13T19:18:06;20.70;1.00
15257;DHT22;7731;50.720;6.912;2023-10-13T19:20:39;20.80;1.00
15257;DHT22;7731;50.720;6.912;2023-10-13T19:23:09;20.90;1.00
15257;DHT22;7731;50.720;6.912;2023-10-13T19:25:41;21.00;1.00
15257;DHT22;7731;50.720;6.912;2023-10-13T19:28:13;21.00;1.00
15257;DHT22;7731;50.720;6.912;2023-10-13T19:30:47;21.20;1.00
15257;DHT22;7731;50.720;6.912;2023-10-13T19:33:19;21.10;1.00
15257;DHT22;7731;50.720;6.912;2023-10-13T19:35:49;21.10;1.00
15257;DHT22;7731;50.720;6.912;2023-10-13T19:38:19;21.20;1.00
15257;DHT22;7731;50.720;6.912;2023-10-13T19:40:50;21.30;1.00
15257;DHT22;7731;50.720;6.912;2023-10-13T19:43:20;21.30;1.00
15257;DHT22;7731;50.720;6.912;2023-10-13T19:45:55;21.40;1.00
15257;DHT22;7731;50.720;6.912;2023-10-13T19:48:26;21.40;1.00
15257;DHT22;7731;50.720;6.912;2023-10-13T19:50:56;21.40;1.00
15257;DHT22;7731;50.720;6.912;2023-10-13T19:53:27;21.40;99.90
15257;DHT22;7731;50.720;6.912;2023-10-13T19:55:58;21.40;99.90
15257;DHT22;7731;50.720;6.912;2023-10-13T19:58:31;21.50;1.00
15257;DHT22;7731;50.720;6.912;2023-10-13T20:01:09;21.60;99.90
15257;DHT22;7731;50.720;6.912;2023-10-13T20:03:42;21.60;95.90
15257;DHT22;7731;50.720;6.912;2023-10-13T20:06:13;21.70;99.90
15257;DHT22;7731;50.720;6.912;2023-10-13T20:08:47;21.70;1.00
15257;DHT22;7731;50.720;6.912;2023-10-13T20:11:19;21.60;24.00
15257;DHT22;7731;50.720;6.912;2023-10-13T20:13:52;21.60;99.90
15257;DHT22;7731;50.720;6.912;2023-10-13T20:16:26;21.60;99.90
15257;DHT22;7731;50.720;6.912;2023-10-13T20:18:58;21.50;99.90
15257;DHT22;7731;50.720;6.912;2023-10-13T20:21:29;21.50;99.90
15257;DHT22;7731;50.720;6.912;2023-10-13T20:24:03;21.50;1.00
15257;DHT22;7731;50.720;6.912;2023-10-13T20:26:34;21.40;99.90
15257;DHT22;7731;50.720;6.912;2023-10-13T20:29:09;21.50;99.90
15257;DHT22;7731;50.720;6.912;2023-10-13T20:31:47;21.40;1.00
15257;DHT22;7731;50.720;6.912;2023-10-13T20:34:19;21.40;1.00
15257;DHT22;7731;50.720;6.912;2023-10-13T20:36:54;21.40;1.00
15257;DHT22;7731;50.720;6.912;2023-10-13T20:39:31;21.40;1.00
15257;DHT22;7731;50.720;6.912;2023-10-13T20:42:06;21.40;99.90
15257;DHT22;7731;50.720;6.912;2023-10-13T20:44:42;21.40;99.90
15257;DHT22;7731;50.720;6.912;2023-10-13T20:47:19;21.40;99.90
15257;DHT22;7731;50.720;6.912;2023-10-13T20:49:57;21.30;1.00
15257;DHT22;7731;50.720;6.912;2023-10-13T20:52:32;21.30;1.00
15257;DHT22;7731;50.720;6.912;2023-10-13T20:55:27;21.30;1.00
15257;DHT22;7731;50.720;6.912;2023-10-13T20:58:03;21.20;1.00
15257;DHT22;7731;50.720;6.912;2023-10-13T21:00:38;21.20;1.00
15257;DHT22;7731;50.720;6.912;2023-10-13T21:03:18;21.20;1.00
15257;DHT22;7731;50.720;6.912;2023-10-13T21:05:54;21.20;1.00
15257;DHT22;7731;50.720;6.912;2023-10-13T21:08:30;21.20;1.00
15257;DHT22;7731;50.720;6.912;2023-10-13T21:11:05;21.10;1.00
15257;DHT22;7731;50.720;6.912;2023-10-13T21:13:41;21.10;1.00
15257;DHT22;7731;50.720;6.912;2023-10-13T21:16:17;21.10;1.00
15257;DHT22;7731;50.720;6.912;2023-10-13T21:18:55;21.10;1.00
15257;DHT22;7731;50.720;6.912;2023-10-13T21:21:30;21.00;1.00
15257;DHT22;7731;50.720;6.912;2023-10-13T21:24:07;21.00;1.00
15257;DHT22;7731;50.720;6.912;2023-10-13T21:26:44;20.90;1.00
15257;DHT22;7731;50.720;6.912;2023-10-13T21:29:21;21.00;1.00
15257;DHT22;7731;50.720;6.912;2023-10-13T21:31:56;20.90;1.00
15257;DHT22;7731;50.720;6.912;2023-10-13T21:34:36;20.80;1.00
15257;DHT22;7731;50.720;6.912;2023-10-13T21:37:12;20.70;19.60
15257;DHT22;7731;50.720;6.912;2023-10-13T21:39:48;20.60;27.60
15257;DHT22;7731;50.720;6.912;2023-10-13T21:42:24;20.50;48.80
15257;DHT22;7731;50.720;6.912;2023-10-13T21:44:59;20.40;57.40
15257;DHT22;7731;50.720;6.912;2023-10-13T21:47:33;20.40;76.90
15257;DHT22;7731;50.720;6.912;2023-10-13T21:50:12;20.30;94.70
15257;DHT22;7731;50.720;6.912;2023-10-13T21:52:49;20.30;99.90
15257;DHT22;7731;50.720;6.912;2023-10-13T21:55:25;20.10;99.90
15257;DHT22;7731;50.720;6.912;2023-10-13T21:58:01;19.90;99.90
15257;DHT22;7731;50.720;6.912;2023-10-13T22:00:35;19.70;99.90
15257;DHT22;7731;50.720;6.912;2023-10-13T22:03:27;19.60;99.90
15257;DHT22;7731;50.720;6.912;2023-10-13T22:06:04;19.50;99.90
15257;DHT22;7731;50.720;6.912;2023-10-13T22:08:44;19.40;99.90
15257;DHT22;7731;50.720;6.912;2023-10-13T22:11:20;19.40;99.90
15257;DHT22;7731;50.720;6.912;2023-10-13T22:13:55;19.40;99.90
15257;DHT22;7731;50.720;6.912;2023-10-13T22:16:31;19.30;99.90
15257;DHT22;7731;50.720;6.912;2023-10-13T22:19:07;19.30;99.90
15257;DHT22;7731;50.720;6.912;2023-10-13T22:21:45;19.30;99.90
15257;DHT22;7731;50.720;6.912;2023-10-13T22:24:23;19.20;99.90
15257;DHT22;7731;50.720;6.912;2023-10-13T22:26:59;19.20;99.90
15257;DHT22;7731;50.720;6.912;2023-10-13T22:29:37;19.20;99.90
15257;DHT22;7731;50.720;6.912;2023-10-13T22:32:14;19.20;99.90
15257;DHT22;7731;50.720;6.912;2023-10-13T22:35:08;19.10;99.90
15257;DHT22;7731;50.720;6.912;2023-10-13T22:37:52;19.20;99.90
15257;DHT22;7731;50.720;6.912;2023-10-13T22:40:29;19.10;99.90
15257;DHT22;7731;50.720;6.912;2023-10-13T22:43:04;19.10;99.90
15257;DHT22;7731;50.720;6.912;2023-10-13T22:45:40;19.10;99.90
15257;DHT22;7731;50.720;6.912;2023-10-13T22:48:16;19.10;99.90
15257;DHT22;7731;50.720;6.912;2023-10-13T22:50:51;19.10;99.90
15257;DHT22;7731;50.720;6.912;2023-10-13T22:53:29;19.20;99.90
15257;DHT22;7731;50.720;6.912;2023-10-13T22:56:05;19.30;99.90
15257;DHT22;7731;50.720;6.912;2023-10-13T22:58:41;19.30;99.90
15257;DHT22;7731;50.720;6.912;2023-10-13T23:01:15;19.30;99.90
15257;DHT22;7731;50.720;6.912;2023-10-13T23:03:53;19.30;99.90